createdAt,value
2018-01-05T01:18:25.342Z,6.93
2018-01-05T01:20:56.362Z,6.30
2018-01-05T01:23:27.489Z,9.13
2018-01-05T01:25:57.115Z,7.80
2018-01-05T01:28:30.341Z,7.93
2018-01-05T01:31:02.896Z,9.33
2018-01-05T01:40:53.104Z,6.90
2018-01-05T01:43:36.277Z,6.53
2018-01-05T01:46:10.965Z,8.30
2018-01-05T06:06:05.210Z,12.50
2018-01-05T06:08:33.640Z,10.80
2018-01-05T06:11:05.314Z,14.67
2018-01-05T06:13:44.852Z,12.00
2018-01-05T06:16:14.580Z,11.73
2018-01-05T06:18:42.921Z,11.90
2018-01-05T06:21:11.196Z,7.43
2018-01-05T06:23:39.485Z,10.00
2018-01-05T06:26:08.514Z,8.17
2018-01-05T06:28:37.033Z,8.93
2018-01-05T06:31:12.037Z,14.60
2018-01-05T06:33:41.082Z,10.90
2018-01-05T06:36:09.468Z,11.50
2018-01-05T06:38:37.830Z,8.70
2018-01-05T06:41:06.312Z,11.53
2018-01-05T06:43:34.594Z,11.00
2018-01-05T06:46:02.803Z,9.30
2018-01-05T06:48:31.058Z,10.60
2018-01-05T06:50:59.421Z,8.17
2018-01-05T06:53:27.752Z,15.80
2018-01-05T06:55:55.994Z,9.30
2018-01-05T06:58:24.282Z,12.07
2018-01-05T07:00:52.519Z,9.10
2018-01-05T07:03:20.765Z,13.23
2018-01-05T07:05:50.255Z,9.03
2018-01-05T07:08:19.780Z,8.70
2018-01-05T07:10:48.058Z,9.23
2018-01-05T07:13:17.325Z,10.03
2018-01-05T07:15:46.202Z,12.20
2018-01-05T07:18:14.886Z,11.23
2018-01-05T07:20:43.194Z,13.07
2018-01-05T07:23:11.427Z,10.20
2018-01-05T07:25:39.648Z,9.87
2018-01-05T07:28:08.765Z,9.77
2018-01-05T07:30:37.043Z,9.90
2018-01-05T07:33:05.581Z,6.10
2018-01-05T07:35:33.898Z,12.83
2018-01-05T07:38:02.159Z,19.50
2018-01-05T07:40:31.140Z,6.57
2018-01-05T07:43:00.175Z,8.50
2018-01-05T07:45:28.415Z,9.67
2018-01-05T07:47:56.700Z,10.47
2018-01-05T07:50:25.052Z,11.87
2018-01-05T07:52:56.220Z,8.40
2018-01-05T07:55:24.685Z,10.80
2018-01-05T07:57:53.983Z,9.20
2018-01-05T08:00:22.399Z,7.67
2018-01-05T08:02:51.370Z,8.40
2018-01-05T08:05:19.646Z,11.30
2018-01-05T08:07:48.121Z,9.23
2018-01-05T08:10:18.936Z,10.03
2018-01-05T08:12:49.152Z,10.50
2018-01-05T08:15:17.643Z,11.97
2018-01-05T08:17:46.527Z,11.73
2018-01-05T08:20:15.418Z,14.57
2018-01-05T08:22:44.150Z,12.00
2018-01-05T08:25:12.744Z,12.80
2018-01-05T08:27:41.052Z,13.77
2018-01-05T08:30:09.587Z,15.40
2018-01-05T08:32:38.096Z,9.83
2018-01-05T08:35:06.549Z,10.03
2018-01-05T08:37:35.012Z,10.57
2018-01-05T08:40:04.101Z,13.53
2018-01-05T08:42:32.375Z,9.03
2018-01-05T08:45:01.423Z,10.00
2018-01-05T08:47:29.840Z,9.83
2018-01-05T08:49:58.093Z,17.93
2018-01-05T08:52:26.344Z,11.83
2018-01-05T08:54:54.791Z,10.90
2018-01-05T08:57:23.796Z,12.27
2018-01-05T08:59:52.104Z,11.87
2018-01-05T09:02:20.826Z,18.57
2018-01-05T09:04:51.080Z,14.23
2018-01-05T09:07:19.689Z,17.50
2018-01-05T09:09:51.057Z,12.60
2018-01-05T09:12:21.136Z,11.93
2018-01-05T09:14:53.576Z,11.97
2018-01-05T09:17:24.517Z,11.00
2018-01-05T09:19:54.696Z,13.70
2018-01-05T09:22:23.592Z,14.77
2018-01-05T09:24:53.931Z,12.50
2018-01-05T09:27:22.990Z,9.77
2018-01-05T09:29:51.259Z,10.00
2018-01-05T09:32:19.537Z,12.50
2018-01-05T09:34:47.820Z,9.83
2018-01-05T09:37:17.406Z,13.80
2018-01-05T09:39:45.804Z,9.43
2018-01-05T09:42:14.402Z,15.30
2018-01-05T09:44:42.837Z,13.53
2018-01-05T09:47:11.288Z,16.93
2018-01-05T09:49:39.552Z,9.60
2018-01-05T09:52:07.813Z,11.93
2018-01-05T09:54:36.187Z,11.60
2018-01-05T09:57:04.430Z,14.77
2018-01-05T09:59:32.697Z,12.60
2018-01-05T10:02:01.953Z,11.57
2018-01-05T10:04:30.223Z,9.40
2018-01-05T10:06:58.470Z,10.27
2018-01-05T10:09:26.760Z,13.50
2018-01-05T10:11:55.006Z,14.00
2018-01-05T10:14:23.491Z,10.97
2018-01-05T10:16:51.778Z,10.83
2018-01-05T10:19:20.045Z,10.27
2018-01-05T10:21:48.277Z,13.23
2018-01-05T10:24:16.569Z,13.30
2018-01-05T10:26:45.620Z,10.57
2018-01-05T10:29:13.846Z,15.13
2018-01-05T10:31:42.876Z,16.50
2018-01-05T10:34:11.254Z,12.43
2018-01-05T10:36:40.402Z,12.00
2018-01-05T10:39:08.761Z,11.27
2018-01-05T10:41:37.232Z,12.93
2018-01-05T10:44:05.711Z,13.47
2018-01-05T10:46:34.103Z,13.43
2018-01-05T10:49:02.408Z,10.37
2018-01-05T10:51:30.933Z,15.47
2018-01-05T10:53:59.208Z,12.87
2018-01-05T10:56:27.724Z,12.83
2018-01-05T10:58:57.057Z,10.47
2018-01-05T11:01:26.882Z,8.27
2018-01-05T11:03:55.276Z,15.40
2018-01-05T11:06:23.578Z,18.93
2018-01-05T11:08:51.867Z,17.67
2018-01-05T11:11:20.139Z,11.57
2018-01-05T11:13:48.499Z,9.70
2018-01-05T11:16:17.047Z,14.67
2018-01-05T11:18:45.450Z,8.93
2018-01-05T11:21:14.673Z,10.23
2018-01-05T11:23:43.123Z,12.53
2018-01-05T11:26:11.709Z,13.70
2018-01-05T11:28:39.988Z,17.47
2018-01-05T11:31:08.309Z,15.60
2018-01-05T11:33:36.672Z,10.63
2018-01-05T11:36:04.948Z,10.70
2018-01-05T11:38:33.237Z,11.03
2018-01-05T11:41:01.611Z,17.47
2018-01-05T11:43:30.713Z,9.40
2018-01-05T11:45:59.965Z,12.03
2018-01-05T11:48:28.251Z,9.97
2018-01-05T11:50:56.545Z,14.33
2018-01-05T11:53:24.828Z,18.47
2018-01-05T11:55:53.088Z,17.20
2018-01-05T11:58:21.326Z,10.30
2018-01-05T12:00:49.610Z,14.87
2018-01-05T12:03:17.846Z,11.97
2018-01-05T12:05:46.180Z,13.27
2018-01-05T12:08:14.842Z,10.80
2018-01-05T12:10:43.943Z,18.67
2018-01-05T12:13:13.588Z,14.50
2018-01-05T12:15:42.013Z,12.63
2018-01-05T12:18:10.940Z,17.40
2018-01-05T12:20:40.422Z,12.10
2018-01-05T12:23:08.778Z,12.47
2018-01-05T12:25:37.272Z,13.23
2018-01-05T12:28:05.569Z,13.37
2018-01-05T12:30:33.870Z,9.87
2018-01-05T12:33:02.283Z,11.40
2018-01-05T12:35:30.879Z,12.30
2018-01-05T12:38:00.941Z,12.50
2018-01-05T12:40:29.560Z,11.30
2018-01-05T12:42:58.946Z,9.00
2018-01-05T12:45:29.607Z,14.83
2018-01-05T12:47:58.908Z,11.27
2018-01-05T12:50:29.058Z,14.70
2018-01-05T12:53:00.120Z,14.80
2018-01-05T12:55:29.076Z,11.83
2018-01-05T12:57:58.557Z,12.80
2018-01-05T13:00:28.994Z,11.43
2018-01-05T13:02:57.441Z,13.23
2018-01-05T13:05:25.831Z,13.20
2018-01-05T13:07:54.855Z,13.70
2018-01-05T13:10:23.174Z,9.20
2018-01-05T13:12:51.537Z,15.23
2018-01-05T13:15:20.170Z,11.43
2018-01-05T13:17:48.462Z,8.60
2018-01-05T13:20:16.926Z,12.70
2018-01-05T13:22:45.984Z,11.63
2018-01-05T13:25:14.522Z,7.87
2018-01-05T13:27:42.920Z,11.47
2018-01-05T13:30:12.654Z,10.77
2018-01-05T13:32:41.240Z,9.43
2018-01-05T13:35:09.584Z,10.70
2018-01-05T13:37:37.846Z,11.77
2018-01-05T13:40:06.129Z,10.73
2018-01-05T13:42:34.556Z,10.57
2018-01-05T13:45:02.966Z,8.37
2018-01-05T13:47:39.260Z,8.83
2018-01-05T13:50:07.628Z,12.90
2018-01-05T13:52:35.998Z,9.47
2018-01-05T13:55:07.222Z,9.30
2018-01-05T13:57:37.804Z,10.33
2018-01-05T14:00:07.445Z,15.63
2018-01-05T14:02:36.474Z,7.40
2018-01-05T14:05:04.752Z,9.47
2018-01-05T14:07:33.036Z,11.40
2018-01-05T14:10:01.299Z,8.20
2018-01-05T14:12:29.568Z,7.97
2018-01-05T14:14:58.046Z,10.30
2018-01-05T14:17:26.286Z,8.10
2018-01-05T14:19:54.534Z,8.80
2018-01-05T14:22:54.440Z,8.13
2018-01-05T14:25:37.239Z,8.00
2018-01-05T14:31:07.522Z,12.97
2018-01-05T14:36:28.082Z,10.00
2018-01-05T14:41:46.938Z,9.63
2018-01-05T14:44:17.056Z,11.97
2018-01-05T14:46:46.067Z,10.97
2018-01-05T14:49:20.103Z,10.27
2018-01-05T14:51:48.385Z,12.93
2018-01-05T14:54:16.674Z,11.20
2018-01-05T14:56:45.059Z,9.30
2018-01-05T14:59:13.729Z,10.00
2018-01-05T15:01:42.026Z,13.47
2018-01-05T15:04:10.311Z,10.83
2018-01-05T15:06:39.623Z,14.00
2018-01-05T15:28:04.372Z,15.40
2018-01-05T15:30:46.743Z,16.23
2018-01-05T15:33:19.185Z,11.83
2018-01-05T15:36:00.386Z,14.67
2018-01-05T15:38:50.032Z,13.43
2018-01-05T15:44:48.540Z,19.43
2018-01-05T16:39:40.418Z,19.57
2018-01-05T16:42:09.624Z,17.33
2018-01-05T16:44:39.269Z,22.47
2018-01-05T16:49:53.999Z,14.43
2018-01-05T16:52:26.230Z,16.40
2018-01-05T16:54:56.096Z,16.57
2018-01-05T17:00:29.515Z,16.13
2018-01-05T17:03:02.438Z,16.53
2018-01-05T17:05:33.900Z,12.97
2018-01-05T17:08:04.208Z,14.10
2018-01-05T17:10:35.809Z,14.40
2018-01-05T17:13:05.500Z,20.87
2018-01-05T17:15:34.171Z,15.30
2018-01-05T17:18:03.609Z,16.27
2018-01-05T17:20:32.072Z,14.00
2018-01-05T17:23:04.310Z,18.27
2018-01-05T17:25:33.839Z,23.30
2018-01-05T17:28:03.327Z,16.50
2018-01-05T17:30:31.889Z,21.43
2018-01-05T17:33:04.738Z,20.30
2018-01-05T17:35:33.729Z,17.00
2018-01-05T17:38:02.084Z,17.67
2018-01-05T17:40:31.816Z,20.70
2018-01-05T17:43:00.494Z,23.80
2018-01-05T17:45:29.083Z,17.87
2018-01-05T17:47:57.830Z,22.93
2018-01-05T17:50:26.642Z,17.37
2018-01-05T17:52:55.012Z,16.37
2018-01-05T17:55:26.421Z,16.73
2018-01-05T17:58:07.966Z,19.20
2018-01-05T18:00:37.134Z,19.60
2018-01-05T18:03:05.627Z,20.10
2018-01-05T18:05:37.235Z,19.07
2018-01-05T18:08:06.559Z,17.93
2018-01-05T18:10:34.920Z,14.60
2018-01-05T18:13:04.160Z,11.47
2018-01-05T18:15:32.429Z,17.87
2018-01-05T18:18:00.725Z,16.70
2018-01-05T18:20:29.087Z,18.17
2018-01-05T18:22:57.404Z,16.13
2018-01-05T18:25:25.752Z,15.93
2018-01-05T18:27:54.085Z,12.60
2018-01-05T18:30:23.098Z,13.17
2018-01-05T18:32:51.389Z,12.27
2018-01-05T18:35:19.757Z,11.60
2018-01-05T18:37:47.997Z,11.33
2018-01-05T18:40:16.340Z,12.60
2018-01-05T18:42:44.719Z,11.20
2018-01-05T18:45:12.990Z,13.73
2018-01-05T18:47:41.445Z,11.00
2018-01-05T18:50:09.768Z,12.40
2018-01-05T18:52:38.073Z,12.57
2018-01-05T18:55:07.148Z,13.17
2018-01-05T18:57:36.223Z,18.17
2018-01-05T19:00:04.509Z,16.30
2018-01-05T19:02:33.592Z,17.93
2018-01-05T19:05:01.950Z,16.33
2018-01-05T19:07:30.205Z,16.77
2018-01-05T19:09:58.487Z,13.33
2018-01-05T19:12:26.878Z,18.90
2018-01-05T19:14:55.256Z,13.67
2018-01-05T19:17:23.760Z,21.90
2018-01-05T19:19:52.066Z,19.40
2018-01-05T19:22:20.922Z,20.80
2018-01-05T19:24:50.214Z,21.30
2018-01-05T19:27:22.941Z,21.60
2018-01-05T19:29:57.261Z,17.60
2018-01-05T19:32:28.628Z,26.73
2018-01-05T19:35:00.013Z,25.97
2018-01-05T19:37:29.027Z,26.70
2018-01-05T19:39:57.943Z,25.20
2018-01-05T19:42:27.964Z,25.73
2018-01-05T19:44:59.697Z,16.93
2018-01-05T19:47:28.236Z,21.33
2018-01-05T19:49:56.534Z,24.60
2018-01-05T19:52:24.815Z,23.13
2018-01-05T19:54:53.072Z,22.03
2018-01-05T19:57:21.343Z,24.77
2018-01-05T19:59:49.713Z,20.20
2018-01-05T20:02:18.726Z,28.40
2018-01-05T20:04:46.951Z,23.93
2018-01-05T20:07:15.269Z,17.57
2018-01-05T20:09:43.510Z,22.70
2018-01-05T20:12:11.807Z,28.10
2018-01-05T20:14:40.084Z,23.97
2018-01-05T20:17:08.343Z,23.07
2018-01-05T20:19:36.628Z,20.10
2018-01-05T20:22:04.939Z,23.57
2018-01-05T20:24:33.311Z,17.63
2018-01-05T20:27:01.590Z,19.50
2018-01-05T20:29:29.945Z,17.60
2018-01-05T20:31:58.164Z,20.10
2018-01-05T20:34:26.421Z,18.70
2018-01-05T20:36:54.990Z,18.30
2018-01-05T20:39:23.251Z,21.63
2018-01-05T20:41:51.523Z,18.73
2018-01-05T20:44:19.818Z,19.70
2018-01-05T20:46:48.058Z,20.43
2018-01-05T20:49:16.302Z,24.30
2018-01-05T20:51:44.572Z,20.27
2018-01-05T20:54:12.816Z,20.53
2018-01-05T20:56:41.067Z,21.73
2018-01-05T20:59:10.146Z,20.10
2018-01-05T21:01:38.406Z,34.60
2018-01-05T21:04:06.673Z,25.27
2018-01-05T21:06:36.033Z,31.67
2018-01-05T21:09:05.911Z,31.00
2018-01-05T21:11:36.434Z,24.10
2018-01-05T21:14:08.915Z,19.00
2018-01-05T21:16:39.795Z,30.93
2018-01-05T21:19:10.803Z,33.10
2018-01-05T21:21:40.022Z,27.33
2018-01-05T21:24:09.210Z,33.13
2018-01-05T21:26:37.528Z,21.00
2018-01-05T21:29:08.326Z,41.97
2018-01-05T21:31:42.969Z,37.57
2018-01-05T21:34:19.885Z,43.43
2018-01-05T21:36:54.603Z,36.10
2018-01-05T21:39:30.888Z,36.20
2018-01-05T21:42:05.254Z,32.40
2018-01-05T21:47:36.324Z,39.93
2018-01-05T21:50:08.155Z,28.67
2018-01-05T21:52:39.025Z,43.63
2018-01-05T21:55:09.384Z,45.27
2018-01-05T21:57:39.904Z,50.43
2018-01-05T22:00:12.426Z,43.27
2018-01-05T22:17:27.540Z,34.70
2018-01-05T22:20:22.800Z,38.67
2018-01-05T22:46:58.550Z,24.73
2018-01-05T22:53:06.443Z,31.23
2018-01-05T22:55:45.166Z,55.50
2018-01-05T23:04:14.700Z,64.73
2018-01-05T23:07:10.306Z,67.30
2018-01-05T23:10:05.529Z,50.10
2018-01-05T23:22:09.074Z,53.07
2018-01-05T23:24:56.588Z,61.23
2018-01-05T23:54:21.062Z,48.00
2018-01-05T23:57:00.900Z,33.70
2018-01-05T23:59:49.042Z,33.87
